createdAt,value
2023-02-14T00:01:54.305Z,103413.31
2023-02-14T00:04:23.099Z,103417.72
2023-02-14T00:06:51.424Z,103424.09
2023-02-14T00:09:22.334Z,103419.59
2023-02-14T00:11:52.150Z,103414.06
2023-02-14T00:14:38.301Z,103411.31
2023-02-14T00:17:06.580Z,103407.84
2023-02-14T00:19:36.079Z,103395.44
2023-02-14T00:22:05.969Z,103398.09
2023-02-14T00:24:35.743Z,103405.28
2023-02-14T00:27:04.108Z,103405.34
2023-02-14T00:29:34.441Z,103400.84
2023-02-14T00:32:02.805Z,103404.31
2023-02-14T00:34:33.395Z,103398.81
2023-02-14T00:37:01.662Z,103407.75
2023-02-14T00:39:30.019Z,103397.28
2023-02-14T00:41:59.731Z,103407.13
2023-02-14T00:44:28.079Z,103410.69
2023-02-14T00:46:56.295Z,103406.25
2023-02-14T00:49:24.711Z,103410.69
2023-02-14T00:51:55.853Z,103406.22
2023-02-14T00:54:24.155Z,103404.38
2023-02-14T00:56:53.301Z,103399.88
2023-02-14T00:59:23.050Z,103398.97
2023-02-14T01:01:52.003Z,103397.97
2023-02-14T01:04:20.324Z,103398.72
2023-02-14T01:06:48.640Z,103401.47
2023-02-14T01:09:16.983Z,103383.78
2023-02-14T01:11:45.577Z,103382.09
2023-02-14T01:14:13.864Z,103387.34
2023-02-14T01:16:43.631Z,103382.72
2023-02-14T01:19:12.026Z,103373.75
2023-02-14T01:21:40.308Z,103375.59
2023-02-14T01:24:10.702Z,103366.91
2023-02-14T01:26:39.079Z,103375.88
2023-02-14T01:29:07.901Z,103377.56
2023-02-14T01:31:37.590Z,103371.16
2023-02-14T01:34:07.329Z,103371.09
2023-02-14T01:36:39.908Z,103365.84
2023-02-14T01:39:12.335Z,103375.63
2023-02-14T01:41:44.211Z,103380.97
2023-02-14T01:44:57.353Z,103383.78
2023-02-14T01:47:29.400Z,103383.00
2023-02-14T01:50:06.080Z,103381.38
2023-02-14T01:52:39.015Z,103380.53
2023-02-14T01:55:14.166Z,103384.13
2023-02-14T01:57:49.908Z,103377.09
2023-02-14T02:00:37.304Z,103377.97
2023-02-14T02:03:09.231Z,103378.84
2023-02-14T02:05:46.090Z,103379.72
2023-02-14T02:08:15.052Z,103376.09
2023-02-14T02:10:43.423Z,103377.16
2023-02-14T02:13:19.922Z,103359.31
2023-02-14T02:16:06.906Z,103379.63
2023-02-14T02:18:53.397Z,103380.63
2023-02-14T02:22:14.093Z,103377.94
2023-02-14T02:24:56.893Z,103387.69
2023-02-14T02:27:56.584Z,103387.63
2023-02-14T02:31:21.298Z,103379.72
2023-02-14T02:34:44.635Z,103383.28
2023-02-14T02:37:37.865Z,103377.06
2023-02-14T02:40:29.367Z,103375.13
2023-02-14T02:43:13.066Z,103377.09
2023-02-14T02:46:10.369Z,103370.84
2023-02-14T02:48:45.825Z,103373.34
2023-02-14T02:51:46.114Z,103372.47
2023-02-14T02:54:24.670Z,103361.69
2023-02-14T02:56:58.816Z,103345.66
2023-02-14T02:59:32.277Z,103355.41
2023-02-14T03:02:10.949Z,103348.44
2023-02-14T03:04:56.040Z,103351.94
2023-02-14T03:07:39.460Z,103354.53
2023-02-14T03:10:17.377Z,103354.53
2023-02-14T03:13:22.484Z,103354.69
2023-02-14T03:16:14.452Z,103353.94
2023-02-14T03:19:26.940Z,103356.75
2023-02-14T03:22:03.518Z,103353.09
2023-02-14T03:24:44.097Z,103356.75
2023-02-14T03:27:21.547Z,103356.78
2023-02-14T03:30:00.831Z,103360.28
2023-02-14T03:32:39.267Z,103357.56
2023-02-14T03:35:17.669Z,103352.91
2023-02-14T03:37:53.187Z,103347.69
2023-02-14T03:40:28.554Z,103350.28
2023-02-14T03:43:04.362Z,103347.69
2023-02-14T03:45:38.229Z,103352.31
2023-02-14T03:48:13.573Z,103348.78
2023-02-14T03:50:47.917Z,103351.47
2023-02-14T03:53:22.601Z,103353.31
2023-02-14T03:56:02.795Z,103346.19
2023-02-14T03:58:38.612Z,103343.47
2023-02-14T04:01:15.556Z,103346.19
2023-02-14T04:03:45.500Z,103343.53
2023-02-14T04:06:13.935Z,103353.41
2023-02-14T04:08:42.237Z,103343.66
2023-02-14T04:11:11.596Z,103350.81
2023-02-14T04:13:41.378Z,103341.97
2023-02-14T04:16:10.337Z,103350.84
2023-02-14T04:18:56.052Z,103343.72
2023-02-14T04:21:24.425Z,103355.22
2023-02-14T04:23:54.856Z,103351.69
2023-02-14T04:26:23.311Z,103344.59
2023-02-14T04:28:53.026Z,103349.84
2023-02-14T04:31:21.483Z,103351.72
2023-02-14T04:33:51.462Z,103350.66
2023-02-14T04:36:19.770Z,103354.38
2023-02-14T04:38:49.172Z,103345.41
2023-02-14T04:41:17.353Z,103342.72
2023-02-14T04:43:45.563Z,103341.09
2023-02-14T04:46:15.213Z,103337.50
2023-02-14T04:48:43.625Z,103341.16
2023-02-14T04:51:11.914Z,103347.38
2023-02-14T04:53:40.565Z,103341.09
2023-02-14T04:56:09.239Z,103334.88
2023-02-14T04:58:37.792Z,103336.72
2023-02-14T05:01:06.076Z,103334.94
2023-02-14T05:03:35.833Z,103334.94
2023-02-14T05:06:04.317Z,103337.69
2023-02-14T05:08:32.539Z,103341.06
2023-02-14T05:11:01.181Z,103331.16
2023-02-14T05:13:29.728Z,103325.13
2023-02-14T05:15:58.047Z,103335.91
2023-02-14T05:18:27.070Z,103326.16
2023-02-14T05:20:57.240Z,103330.63
2023-02-14T05:23:25.988Z,103336.03
2023-02-14T05:25:57.184Z,103337.78
2023-02-14T05:28:25.724Z,103343.09
2023-02-14T05:30:58.908Z,103333.19
2023-02-14T05:33:28.249Z,103341.16
2023-02-14T05:36:01.140Z,103327.06
2023-02-14T05:38:29.475Z,103333.34
2023-02-14T05:40:58.188Z,103328.97
2023-02-14T05:43:26.680Z,103327.25
2023-02-14T05:45:55.344Z,103334.34
2023-02-14T05:48:23.952Z,103333.50
2023-02-14T05:50:52.882Z,103333.50
2023-02-14T05:53:22.635Z,103331.56
2023-02-14T05:55:52.300Z,103325.47
2023-02-14T05:58:20.576Z,103328.94
2023-02-14T06:00:49.044Z,103327.28
2023-02-14T06:03:17.307Z,103332.59
2023-02-14T06:05:46.611Z,103330.91
2023-02-14T06:08:14.913Z,103335.38
2023-02-14T06:10:44.549Z,103330.09
2023-02-14T06:13:12.842Z,103326.53
2023-02-14T06:15:42.244Z,103330.94
2023-02-14T06:18:10.740Z,103323.03
2023-02-14T06:20:39.224Z,103337.16
2023-02-14T06:23:07.665Z,103334.47
2023-02-14T06:25:36.044Z,103342.47
2023-02-14T06:28:06.655Z,103338.97
2023-02-14T06:30:34.987Z,103340.75
2023-02-14T06:33:03.409Z,103339.81
2023-02-14T06:35:31.832Z,103351.38
2023-02-14T06:38:01.125Z,103342.53
2023-02-14T06:40:29.465Z,103342.53
2023-02-14T06:42:57.694Z,103341.66
2023-02-14T06:45:27.417Z,103345.16
2023-02-14T06:47:56.773Z,103354.91
2023-02-14T06:50:24.970Z,103346.91
2023-02-14T06:52:53.517Z,103359.28
2023-02-14T06:55:22.186Z,103353.09
2023-02-14T06:57:50.390Z,103349.38
2023-02-14T07:00:20.792Z,103353.75
2023-02-14T07:02:50.410Z,103353.75
2023-02-14T07:05:19.378Z,103358.97
2023-02-14T07:07:47.709Z,103356.31
2023-02-14T07:10:16.724Z,103351.00
2023-02-14T07:12:45.022Z,103350.91
2023-02-14T07:15:16.575Z,103349.38
2023-02-14T07:17:45.788Z,103347.53
2023-02-14T07:20:16.216Z,103340.38
2023-02-14T07:22:44.401Z,103327.78
2023-02-14T07:25:13.774Z,103335.00
2023-02-14T07:27:42.247Z,103334.78
2023-02-14T07:30:12.514Z,103336.34
2023-02-14T07:32:42.075Z,103335.47
2023-02-14T07:35:11.316Z,103326.63
2023-02-14T07:37:41.384Z,103333.63
2023-02-14T07:40:14.597Z,103330.16
2023-02-14T07:42:44.009Z,103325.75
2023-02-14T07:45:21.919Z,103333.03
2023-02-14T07:47:54.670Z,103331.09
2023-02-14T07:50:24.425Z,103322.84
2023-02-14T07:52:54.232Z,103321.19
2023-02-14T07:55:25.117Z,103318.34
2023-02-14T07:57:53.841Z,103318.13
2023-02-14T08:00:23.790Z,103319.06
2023-02-14T08:02:52.412Z,103316.56
2023-02-14T08:05:21.153Z,103320.13
2023-02-14T08:07:50.521Z,103320.09
2023-02-14T08:10:20.841Z,103316.50
2023-02-14T08:13:09.622Z,103314.03
2023-02-14T08:15:55.720Z,103318.41
2023-02-14T08:18:24.315Z,103320.69
2023-02-14T08:20:53.363Z,103324.94
2023-02-14T08:23:22.402Z,103323.25
2023-02-14T08:25:53.937Z,103326.03
2023-02-14T08:28:22.515Z,103315.38
2023-02-14T08:30:51.239Z,103318.91
2023-02-14T08:33:19.637Z,103327.00
2023-02-14T08:35:52.423Z,103327.81
2023-02-14T08:38:21.120Z,103324.94
2023-02-14T08:40:51.155Z,103327.13
2023-02-14T08:43:19.531Z,103331.34
2023-02-14T08:45:48.598Z,103327.72
2023-02-14T08:48:16.977Z,103323.28
2023-02-14T08:50:45.266Z,103320.72
2023-02-14T08:53:14.699Z,103326.91
2023-02-14T08:55:43.141Z,103331.03
2023-02-14T08:58:12.771Z,103333.38
2023-02-14T09:00:42.205Z,103331.47
2023-02-14T09:03:10.757Z,103326.22
2023-02-14T09:05:39.199Z,103325.38
2023-02-14T09:08:07.788Z,103322.69
2023-02-14T09:10:37.880Z,103328.06
2023-02-14T09:13:07.367Z,103329.13
2023-02-14T09:15:37.135Z,103331.78
2023-02-14T09:18:05.869Z,103321.69
2023-02-14T09:20:34.159Z,103318.47
2023-02-14T09:23:02.540Z,103319.22
2023-02-14T09:25:31.269Z,103323.59
2023-02-14T09:27:59.548Z,103322.66
2023-02-14T09:30:28.424Z,103322.75
2023-02-14T09:32:58.082Z,103317.47
2023-02-14T09:35:45.189Z,103320.88
2023-02-14T09:38:19.373Z,103314.34
2023-02-14T09:40:48.830Z,103309.06
2023-02-14T09:43:24.866Z,103303.56
2023-02-14T09:46:00.797Z,103305.81
2023-02-14T09:48:36.788Z,103307.25
2023-02-14T09:51:13.056Z,103306.19
2023-02-14T09:53:47.613Z,103312.44
2023-02-14T09:56:25.571Z,103306.16
2023-02-14T09:59:04.696Z,103302.78
2023-02-14T10:01:43.058Z,103315.38
2023-02-14T10:04:33.565Z,103313.06
2023-02-14T10:07:18.412Z,103319.16
2023-02-14T10:10:01.070Z,103321.44
2023-02-14T10:12:40.343Z,103314.19
2023-02-14T10:15:18.717Z,103306.78
2023-02-14T10:17:55.240Z,103309.50
2023-02-14T10:20:33.403Z,103303.56
2023-02-14T10:23:11.878Z,103300.84
2023-02-14T10:25:46.067Z,103295.19
2023-02-14T10:28:22.552Z,103295.84
2023-02-14T10:31:17.182Z,103292.72
2023-02-14T10:33:57.086Z,103288.84
2023-02-14T10:36:48.455Z,103290.59
2023-02-14T10:39:45.566Z,103294.66
2023-02-14T10:42:27.410Z,103291.22
2023-02-14T10:45:13.669Z,103294.91
2023-02-14T10:47:55.915Z,103294.53
2023-02-14T10:50:36.431Z,103289.78
2023-02-14T10:53:17.150Z,103293.28
2023-02-14T10:55:53.872Z,103282.84
2023-02-14T10:58:25.643Z,103273.84
2023-02-14T11:01:03.515Z,103275.91
2023-02-14T11:03:33.899Z,103278.44
2023-02-14T11:06:02.861Z,103265.66
2023-02-14T11:08:36.328Z,103283.75
2023-02-14T11:11:18.374Z,103281.69
2023-02-14T11:13:49.472Z,103274.19
2023-02-14T11:16:32.132Z,103275.69
2023-02-14T11:19:21.370Z,103271.84
2023-02-14T11:21:52.909Z,103272.66
2023-02-14T11:24:32.258Z,103264.31
2023-02-14T11:27:05.364Z,103264.03
2023-02-14T11:29:45.078Z,103259.47
2023-02-14T11:32:22.738Z,103256.41
2023-02-14T11:35:00.797Z,103255.72
2023-02-14T11:37:34.148Z,103255.41
2023-02-14T11:40:05.725Z,103250.38
2023-02-14T11:42:42.265Z,103253.03
2023-02-14T11:45:31.509Z,103258.22
2023-02-14T11:48:24.745Z,103251.78
2023-02-14T11:51:06.222Z,103256.72
2023-02-14T11:53:46.975Z,103255.44
2023-02-14T11:56:19.540Z,103241.97
2023-02-14T11:58:55.605Z,103235.13
2023-02-14T12:01:30.571Z,103233.66
2023-02-14T12:04:06.258Z,103226.00
2023-02-14T12:06:37.608Z,103220.22
2023-02-14T12:09:14.283Z,103226.31
2023-02-14T12:11:57.729Z,103220.28
2023-02-14T12:14:30.912Z,103216.94
2023-02-14T12:17:11.041Z,103208.91
2023-02-14T12:19:50.133Z,103206.97
2023-02-14T12:22:23.987Z,103194.06
2023-02-14T12:25:04.148Z,103187.50
2023-02-14T12:27:48.431Z,103185.25
2023-02-14T12:30:23.166Z,103181.75
2023-02-14T12:32:56.439Z,103182.28
2023-02-14T12:35:48.808Z,103184.41
2023-02-14T12:38:31.031Z,103183.31
2023-02-14T12:41:16.342Z,103180.97
2023-02-14T12:43:52.540Z,103186.69
2023-02-14T12:47:02.954Z,103181.75
2023-02-14T12:50:14.522Z,103166.59
2023-02-14T12:53:08.114Z,103158.69
2023-02-14T12:55:55.455Z,103153.69
2023-02-14T12:58:46.105Z,103151.38
2023-02-14T13:01:42.634Z,103146.78
2023-02-14T13:04:46.824Z,103148.13
2023-02-14T13:07:38.215Z,103145.91
2023-02-14T13:10:20.487Z,103143.47
2023-02-14T13:13:00.909Z,103151.22
2023-02-14T13:15:42.464Z,103145.91
2023-02-14T13:18:32.156Z,103138.00
2023-02-14T13:21:07.416Z,103132.22
2023-02-14T13:23:41.934Z,103122.28
2023-02-14T13:26:18.615Z,103104.31
2023-02-14T13:28:53.450Z,103110.69
2023-02-14T13:31:23.316Z,103111.84
2023-02-14T13:34:00.060Z,103104.59
2023-02-14T13:36:30.162Z,103107.81
2023-02-14T13:39:01.557Z,103115.72
2023-02-14T13:41:31.813Z,103120.06
2023-02-14T13:44:01.740Z,103116.28
2023-02-14T13:46:51.868Z,103123.72
2023-02-14T13:49:33.090Z,103102.25
2023-02-14T13:52:05.549Z,103091.44
2023-02-14T13:54:41.209Z,103088.59
2023-02-14T13:57:33.973Z,103087.44
2023-02-14T14:00:40.991Z,103088.16
2023-02-14T14:03:16.844Z,103078.34
2023-02-14T14:06:06.134Z,103079.97
2023-02-14T14:08:50.542Z,103069.44
2023-02-14T14:11:59.970Z,103079.44
2023-02-14T14:14:36.407Z,103092.66
2023-02-14T14:17:26.201Z,103099.75
2023-02-14T14:19:55.244Z,103091.50
2023-02-14T14:22:27.661Z,103086.06
2023-02-14T14:25:01.435Z,103080.56
2023-02-14T14:27:37.164Z,103081.38
2023-02-14T14:30:16.959Z,103089.09
2023-02-14T14:32:45.761Z,103073.53
2023-02-14T14:35:22.015Z,103069.41
2023-02-14T14:37:55.836Z,103070.91
2023-02-14T14:40:28.964Z,103077.94
2023-02-14T14:43:06.409Z,103069.19
2023-02-14T14:45:35.751Z,103071.22
2023-02-14T14:48:13.790Z,103067.19
2023-02-14T14:50:49.417Z,103064.31
2023-02-14T14:53:32.383Z,103056.66
2023-02-14T14:56:01.271Z,103049.63
2023-02-14T14:58:42.189Z,103038.53
2023-02-14T15:01:26.366Z,103023.41
2023-02-14T15:03:54.857Z,103013.47
2023-02-14T15:06:24.121Z,103017.09
2023-02-14T15:08:54.896Z,103022.28
2023-02-14T15:11:46.157Z,103036.22
2023-02-14T15:14:22.406Z,103037.78
2023-02-14T15:16:57.915Z,103037.53
2023-02-14T15:19:34.397Z,103038.25
2023-02-14T15:22:05.595Z,103043.78
2023-02-14T15:24:39.541Z,103044.22
2023-02-14T15:27:17.937Z,103049.53
2023-02-14T15:29:57.963Z,103042.25
2023-02-14T15:32:29.272Z,103038.69
2023-02-14T15:34:58.721Z,103035.94
2023-02-14T15:37:28.502Z,103025.53
2023-02-14T15:39:59.498Z,103027.41
2023-02-14T15:42:32.946Z,103034.03
2023-02-14T15:45:22.366Z,103033.81
2023-02-14T15:47:54.879Z,103038.34
2023-02-14T15:50:30.534Z,103046.28
2023-02-14T15:53:08.179Z,103048.41
2023-02-14T15:55:38.234Z,103049.47
2023-02-14T15:58:16.536Z,103045.16
2023-02-14T16:00:45.868Z,103049.06
2023-02-14T16:03:22.277Z,103053.44
2023-02-14T16:05:51.922Z,103054.09
2023-02-14T16:08:31.287Z,103043.19
2023-02-14T16:11:08.942Z,103045.59
2023-02-14T16:13:39.608Z,103042.69
2023-02-14T16:16:10.349Z,103040.53
2023-02-14T16:18:43.794Z,103042.63
2023-02-14T16:21:17.036Z,103049.16
2023-02-14T16:23:47.293Z,103040.59
2023-02-14T16:26:17.072Z,103043.63
2023-02-14T16:28:45.394Z,103043.88
2023-02-14T16:31:17.839Z,103044.16
2023-02-14T16:33:46.332Z,103046.97
2023-02-14T16:36:24.257Z,103048.06
2023-02-14T16:38:53.424Z,103049.97
2023-02-14T16:41:30.182Z,103048.06
2023-02-14T16:43:59.661Z,103049.00
2023-02-14T16:46:32.830Z,103046.38
2023-02-14T16:49:01.150Z,103046.34
2023-02-14T16:51:35.898Z,103044.59
2023-02-14T16:54:08.893Z,103046.41
2023-02-14T16:56:45.398Z,103047.38
2023-02-14T16:59:13.964Z,103049.22
2023-02-14T17:01:42.358Z,103059.88
2023-02-14T17:04:11.244Z,103046.66
2023-02-14T17:06:47.177Z,103049.44
2023-02-14T17:09:25.510Z,103037.91
2023-02-14T17:12:02.088Z,103049.41
2023-02-14T17:14:38.428Z,103051.28
2023-02-14T17:17:07.194Z,103042.47
2023-02-14T17:19:36.160Z,103041.69
2023-02-14T17:22:05.291Z,103038.25
2023-02-14T17:24:33.999Z,103043.66
2023-02-14T17:27:03.885Z,103033.09
2023-02-14T17:29:32.313Z,103032.25
2023-02-14T17:32:00.712Z,103027.03
2023-02-14T17:34:32.773Z,103027.06
2023-02-14T17:37:01.141Z,103022.66
2023-02-14T17:39:32.655Z,103025.31
2023-02-14T17:42:01.018Z,103030.59
2023-02-14T17:44:32.589Z,103028.78
2023-02-14T17:47:00.982Z,103024.31
2023-02-14T17:49:29.724Z,103024.31
2023-02-14T17:51:59.165Z,103021.53
2023-02-14T17:54:28.766Z,103021.53
2023-02-14T17:56:57.524Z,103022.47
2023-02-14T17:59:25.868Z,103017.28
2023-02-14T18:01:55.683Z,103016.53
2023-02-14T18:04:24.204Z,103019.25
2023-02-14T18:06:53.063Z,103015.78
2023-02-14T18:09:21.807Z,103010.69
2023-02-14T18:11:52.116Z,103012.63
2023-02-14T18:14:21.547Z,103005.72
2023-02-14T18:16:49.924Z,103012.00
2023-02-14T18:19:20.752Z,103013.84
2023-02-14T18:21:49.212Z,103007.72
2023-02-14T18:24:17.491Z,103005.13
2023-02-14T18:26:46.129Z,103002.47
2023-02-14T18:29:15.153Z,103001.59
2023-02-14T18:31:45.676Z,103014.00
2023-02-14T18:34:14.393Z,103000.75
2023-02-14T18:36:44.101Z,103001.66
2023-02-14T18:39:12.663Z,102999.91
2023-02-14T18:41:42.193Z,102989.34
2023-02-14T18:44:11.644Z,102992.03
2023-02-14T18:46:40.588Z,102987.63
2023-02-14T18:49:09.557Z,102995.50
2023-02-14T18:51:39.897Z,102986.69
2023-02-14T18:54:09.807Z,102984.91
2023-02-14T18:56:40.648Z,102993.75
2023-02-14T18:59:13.400Z,102991.09
2023-02-14T19:01:44.191Z,102982.22
2023-02-14T19:04:14.237Z,102977.84
2023-02-14T19:06:43.878Z,102977.81
2023-02-14T19:09:17.139Z,102981.31
2023-02-14T19:11:46.792Z,102972.47
2023-02-14T19:14:16.354Z,102976.94
2023-02-14T19:16:50.815Z,102970.81
2023-02-14T19:19:20.983Z,102967.34
2023-02-14T19:21:50.793Z,102973.56
2023-02-14T19:24:21.835Z,102973.59
2023-02-14T19:26:50.157Z,102966.53
2023-02-14T19:29:20.857Z,102967.44
2023-02-14T19:31:53.692Z,102967.34
2023-02-14T19:34:26.093Z,102965.53
2023-02-14T19:36:57.492Z,102969.06
2023-02-14T19:39:32.232Z,102957.66
2023-02-14T19:42:01.916Z,102961.97
2023-02-14T19:44:33.203Z,102967.09
2023-02-14T19:47:19.230Z,102968.81
2023-02-14T19:49:52.303Z,102960.91
2023-02-14T19:52:27.957Z,102962.78
2023-02-14T19:54:57.964Z,102959.22
2023-02-14T19:57:26.383Z,102955.69
2023-02-14T19:59:54.965Z,102959.22
2023-02-14T20:02:23.501Z,102954.81
2023-02-14T20:04:53.618Z,102956.66
2023-02-14T20:07:22.222Z,102956.66
2023-02-14T20:09:50.959Z,102952.28
2023-02-14T20:12:20.667Z,102952.41
2023-02-14T20:14:54.096Z,102956.84
2023-02-14T20:17:22.651Z,102955.88
2023-02-14T20:19:52.790Z,102950.56
2023-02-14T20:22:23.170Z,102951.44
2023-02-14T20:24:51.865Z,102951.53
2023-02-14T20:27:21.566Z,102942.59
2023-02-14T20:29:51.743Z,102933.75
2023-02-14T20:32:20.684Z,102930.25
2023-02-14T20:34:50.578Z,102932.13
2023-02-14T20:37:19.906Z,102935.72
2023-02-14T20:39:48.391Z,102926.88
2023-02-14T20:42:16.921Z,102929.53
2023-02-14T20:44:47.011Z,102926.94
2023-02-14T20:47:17.143Z,102935.75
2023-02-14T20:49:45.777Z,102930.44
2023-02-14T20:52:14.236Z,102925.13
2023-02-14T20:54:42.780Z,102924.31
2023-02-14T20:57:11.571Z,102935.78
2023-02-14T20:59:44.818Z,102933.09
2023-02-14T21:02:16.041Z,102933.97
2023-02-14T21:04:44.590Z,102936.56
2023-02-14T21:07:12.863Z,102930.41
2023-02-14T21:09:41.097Z,102931.31
2023-02-14T21:12:09.344Z,102929.53
2023-02-14T21:14:37.779Z,102925.13
2023-02-14T21:17:05.987Z,102924.28
2023-02-14T21:19:35.770Z,102914.66
2023-02-14T21:22:04.316Z,102923.47
2023-02-14T21:24:32.690Z,102927.81
2023-02-14T21:27:01.766Z,102928.72
2023-02-14T21:29:30.117Z,102925.13
2023-02-14T21:31:58.451Z,102922.47
2023-02-14T21:34:28.511Z,102921.59
2023-02-14T21:36:58.103Z,102912.75
2023-02-14T21:39:27.994Z,102910.16
2023-02-14T21:41:56.499Z,102910.97
2023-02-14T21:44:38.740Z,102910.13
2023-02-14T21:47:06.962Z,102903.13
2023-02-14T21:49:53.146Z,102909.34
2023-02-14T21:52:22.761Z,102898.78
2023-02-14T21:54:51.103Z,102897.03
2023-02-14T21:57:19.322Z,102892.66
2023-02-14T21:59:47.648Z,102895.31
2023-02-14T22:02:15.921Z,102892.72
2023-02-14T22:04:45.646Z,102887.44
2023-02-14T22:07:13.934Z,102893.63
2023-02-14T22:09:43.608Z,102886.56
2023-02-14T22:12:11.931Z,102892.66
2023-02-14T22:14:40.434Z,102883.88
2023-02-14T22:17:08.640Z,102884.72
2023-02-14T22:19:37.126Z,102883.84
2023-02-14T22:22:05.815Z,102882.94
2023-02-14T22:24:34.085Z,102882.00
2023-02-14T22:27:03.704Z,102885.56
2023-02-14T22:29:32.038Z,102875.91
2023-02-14T22:32:00.373Z,102868.91
2023-02-14T22:34:31.991Z,102874.22
2023-02-14T22:37:00.210Z,102869.84
2023-02-14T22:39:29.767Z,102877.78
2023-02-14T22:41:58.324Z,102873.41
2023-02-14T22:44:28.424Z,102875.16
2023-02-14T22:46:56.700Z,102875.16
2023-02-14T22:49:25.049Z,102862.81
2023-02-14T22:51:53.290Z,102857.56
2023-02-14T22:54:21.852Z,102859.31
2023-02-14T22:56:51.436Z,102858.44
2023-02-14T22:59:23.755Z,102847.91
2023-02-14T23:01:54.960Z,102853.19
2023-02-14T23:04:25.836Z,102854.03
2023-02-14T23:06:55.097Z,102856.69
2023-02-14T23:09:24.581Z,102850.53
2023-02-14T23:11:53.173Z,102850.53
2023-02-14T23:14:40.192Z,102854.06
2023-02-14T23:17:34.533Z,102849.66
2023-02-14T23:20:20.655Z,102847.03
2023-02-14T23:22:49.975Z,102847.91
2023-02-14T23:25:18.426Z,102848.78
2023-02-14T23:27:48.363Z,102844.38
2023-02-14T23:30:19.825Z,102841.75
2023-02-14T23:32:49.577Z,102845.28
2023-02-14T23:35:18.023Z,102842.63
2023-02-14T23:37:47.251Z,102850.53
2023-02-14T23:40:15.597Z,102836.44
2023-02-14T23:42:43.950Z,102838.19
2023-02-14T23:45:29.819Z,102834.66
2023-02-14T23:48:03.989Z,102834.66
2023-02-14T23:50:32.425Z,102832.91
2023-02-14T23:53:00.771Z,102831.16
2023-02-14T23:55:31.588Z,102838.16
2023-02-14T23:58:01.305Z,102833.75
